sensor_id;sensor_type;location;lat;lon;timestamp;pressure;altitude;pressure_sealevel;temperature;humidity
67015;BME280;1033;52.560;13.374;2023-02-17T00:01:43;101416.06;;;8.72;82.42
67015;BME280;1033;52.560;13.374;2023-02-17T00:04:12;101409.72;;;8.57;84.69
67015;BME280;1033;52.560;13.374;2023-02-17T00:06:41;101403.84;;;8.54;85.32
67015;BME280;1033;52.560;13.374;2023-02-17T00:09:11;101393.13;;;8.38;87.94
67015;BME280;1033;52.560;13.374;2023-02-17T00:11:40;101391.47;;;8.37;89.20
67015;BME280;1033;52.560;13.374;2023-02-17T00:14:11;101382.69;;;8.35;89.83
67015;BME280;1033;52.560;13.374;2023-02-17T00:16:41;101380.16;;;8.33;90.80
67015;BME280;1033;52.560;13.374;2023-02-17T00:19:11;101376.53;;;8.18;91.46
67015;BME280;1033;52.560;13.374;2023-02-17T00:21:54;101369.25;;;8.26;91.37
67015;BME280;1033;52.560;13.374;2023-02-17T00:24:24;101365.91;;;8.16;91.27
67015;BME280;1033;52.560;13.374;2023-02-17T00:26:54;101375.03;;;8.07;92.01
67015;BME280;1033;52.560;13.374;2023-02-17T00:29:25;101370.94;;;8.19;92.21
67015;BME280;1033;52.560;13.374;2023-02-17T00:31:55;101366.91;;;8.15;92.88
67015;BME280;1033;52.560;13.374;2023-02-17T00:34:25;101362.53;;;8.22;92.71
67015;BME280;1033;52.560;13.374;2023-02-17T00:36:55;101367.56;;;8.25;92.69
67015;BME280;1033;52.560;13.374;2023-02-17T00:39:25;101370.31;;;8.09;93.03
67015;BME280;1033;52.560;13.374;2023-02-17T00:41:54;101365.06;;;8.16;93.09
67015;BME280;1033;52.560;13.374;2023-02-17T00:44:51;101368.03;;;8.29;92.60
67015;BME280;1033;52.560;13.374;2023-02-17T00:47:49;101358.47;;;8.18;93.08
67015;BME280;1033;52.560;13.374;2023-02-17T00:53:40;101340.75;;;8.32;92.17
67015;BME280;1033;52.560;13.374;2023-02-17T00:56:10;101332.56;;;8.17;92.25
67015;BME280;1033;52.560;13.374;2023-02-17T00:58:39;101334.41;;;8.17;92.93
67015;BME280;1033;52.560;13.374;2023-02-17T01:01:10;101334.56;;;8.15;93.16
67015;BME280;1033;52.560;13.374;2023-02-17T01:03:40;101325.63;;;8.15;92.93
67015;BME280;1033;52.560;13.374;2023-02-17T01:06:17;101326.16;;;8.10;92.98
67015;BME280;1033;52.560;13.374;2023-02-17T01:08:50;101325.53;;;8.08;93.41
67015;BME280;1033;52.560;13.374;2023-02-17T01:11:22;101314.06;;;8.06;93.19
67015;BME280;1033;52.560;13.374;2023-02-17T01:13:53;101314.00;;;8.22;92.67
67015;BME280;1033;52.560;13.374;2023-02-17T01:16:26;101311.19;;;8.08;93.31
67015;BME280;1033;52.560;13.374;2023-02-17T01:19:05;101314.53;;;8.10;93.06
67015;BME280;1033;52.560;13.374;2023-02-17T01:21:35;101310.69;;;8.04;92.94
67015;BME280;1033;52.560;13.374;2023-02-17T01:24:06;101309.72;;;7.97;93.65
67015;BME280;1033;52.560;13.374;2023-02-17T01:26:36;101296.56;;;8.02;94.37
67015;BME280;1033;52.560;13.374;2023-02-17T01:29:08;101294.06;;;8.23;92.90
67015;BME280;1033;52.560;13.374;2023-02-17T01:31:39;101295.50;;;8.11;92.65
67015;BME280;1033;52.560;13.374;2023-02-17T01:34:11;101280.28;;;8.18;93.22
67015;BME280;1033;52.560;13.374;2023-02-17T01:36:40;101285.09;;;8.08;93.32
67015;BME280;1033;52.560;13.374;2023-02-17T01:39:12;101282.81;;;8.20;92.97
67015;BME280;1033;52.560;13.374;2023-02-17T01:41:41;101282.97;;;8.18;92.99
67015;BME280;1033;52.560;13.374;2023-02-17T01:44:16;101282.81;;;8.20;92.76
67015;BME280;1033;52.560;13.374;2023-02-17T01:46:48;101283.66;;;8.20;92.42
67015;BME280;1033;52.560;13.374;2023-02-17T01:49:23;101274.72;;;8.20;92.50
67015;BME280;1033;52.560;13.374;2023-02-17T01:51:56;101268.63;;;8.26;92.81
67015;BME280;1033;52.560;13.374;2023-02-17T01:54:32;101266.47;;;8.21;92.71
67015;BME280;1033;52.560;13.374;2023-02-17T01:57:02;101265.19;;;8.09;93.07
67015;BME280;1033;52.560;13.374;2023-02-17T01:59:31;101262.56;;;8.24;93.23
67015;BME280;1033;52.560;13.374;2023-02-17T02:02:04;101262.75;;;8.22;93.40
67015;BME280;1033;52.560;13.374;2023-02-17T02:04:36;101267.13;;;8.23;93.58
67015;BME280;1033;52.560;13.374;2023-02-17T02:07:12;101253.31;;;8.18;94.42
67015;BME280;1033;52.560;13.374;2023-02-17T02:09:45;101242.75;;;8.17;96.25
67015;BME280;1033;52.560;13.374;2023-02-17T02:12:18;101245.75;;;8.22;97.33
67015;BME280;1033;52.560;13.374;2023-02-17T02:14:48;101243.63;;;8.09;98.57
67015;BME280;1033;52.560;13.374;2023-02-17T02:17:28;101228.28;;;8.10;99.89
67015;BME280;1033;52.560;13.374;2023-02-17T02:20:27;101227.41;;;7.86;100.00
67015;BME280;1033;52.560;13.374;2023-02-17T02:23:14;101221.41;;;7.76;100.00
67015;BME280;1033;52.560;13.374;2023-02-17T02:26:29;101207.19;;;7.60;100.00
67015;BME280;1033;52.560;13.374;2023-02-17T02:29:20;101202.44;;;7.62;100.00
67015;BME280;1033;52.560;13.374;2023-02-17T02:32:04;101185.59;;;7.68;100.00
67015;BME280;1033;52.560;13.374;2023-02-17T02:34:42;101185.28;;;7.63;100.00
67015;BME280;1033;52.560;13.374;2023-02-17T02:37:16;101180.75;;;7.55;100.00
67015;BME280;1033;52.560;13.374;2023-02-17T02:39:48;101185.28;;;7.63;100.00
67015;BME280;1033;52.560;13.374;2023-02-17T02:42:21;101180.59;;;7.57;100.00
67015;BME280;1033;52.560;13.374;2023-02-17T02:44:51;101186.34;;;7.54;100.00
67015;BME280;1033;52.560;13.374;2023-02-17T02:47:42;101182.31;;;7.50;100.00
67015;BME280;1033;52.560;13.374;2023-02-17T02:50:20;101172.25;;;7.43;100.00
67015;BME280;1033;52.560;13.374;2023-02-17T02:53:06;101164.53;;;7.40;100.00
67015;BME280;1033;52.560;13.374;2023-02-17T02:55:49;101161.50;;;7.35;100.00
67015;BME280;1033;52.560;13.374;2023-02-17T02:58:23;101168.53;;;7.45;100.00
67015;BME280;1033;52.560;13.374;2023-02-17T03:01:00;101157.88;;;7.51;100.00
67015;BME280;1033;52.560;13.374;2023-02-17T03:03:38;101155.72;;;7.47;100.00
67015;BME280;1033;52.560;13.374;2023-02-17T03:06:16;101148.44;;;7.55;100.00
67015;BME280;1033;52.560;13.374;2023-02-17T03:08:52;101131.16;;;7.41;100.00
67015;BME280;1033;52.560;13.374;2023-02-17T03:11:23;101126.69;;;7.34;100.00
67015;BME280;1033;52.560;13.374;2023-02-17T03:14:02;101140.94;;;7.42;100.00
67015;BME280;1033;52.560;13.374;2023-02-17T03:16:32;101138.88;;;7.53;100.00
67015;BME280;1033;52.560;13.374;2023-02-17T03:19:02;101123.47;;;7.38;100.00
67015;BME280;1033;52.560;13.374;2023-02-17T03:21:37;101121.03;;;7.52;100.00
67015;BME280;1033;52.560;13.374;2023-02-17T03:24:08;101126.78;;;7.49;100.00
67015;BME280;1033;52.560;13.374;2023-02-17T03:26:37;101131.78;;;7.52;100.00
67015;BME280;1033;52.560;13.374;2023-02-17T03:29:07;101129.69;;;7.39;100.00
67015;BME280;1033;52.560;13.374;2023-02-17T03:31:36;101134.53;;;7.43;100.00
67015;BME280;1033;52.560;13.374;2023-02-17T03:34:06;101135.88;;;7.48;100.00
67015;BME280;1033;52.560;13.374;2023-02-17T03:36:37;101139.56;;;7.47;100.00
67015;BME280;1033;52.560;13.374;2023-02-17T03:39:06;101138.81;;;7.61;100.00
67015;BME280;1033;52.560;13.374;2023-02-17T03:41:35;101132.41;;;7.62;100.00
67015;BME280;1033;52.560;13.374;2023-02-17T03:44:04;101130.34;;;7.72;100.00
67015;BME280;1033;52.560;13.374;2023-02-17T03:46:33;101121.50;;;7.55;100.00
67015;BME280;1033;52.560;13.374;2023-02-17T03:49:02;101122.25;;;7.72;100.00
67015;BME280;1033;52.560;13.374;2023-02-17T03:51:31;101119.25;;;7.67;100.00
67015;BME280;1033;52.560;13.374;2023-02-17T03:54:02;101122.00;;;7.59;100.00
67015;BME280;1033;52.560;13.374;2023-02-17T03:56:31;101117.09;;;7.62;100.00
67015;BME280;1033;52.560;13.374;2023-02-17T03:59:00;101118.63;;;7.57;100.00
67015;BME280;1033;52.560;13.374;2023-02-17T04:05:15;101104.41;;;7.71;100.00
67015;BME280;1033;52.560;13.374;2023-02-17T04:07:44;101103.03;;;7.75;100.00
67015;BME280;1033;52.560;13.374;2023-02-17T04:10:15;101100.47;;;7.81;100.00
67015;BME280;1033;52.560;13.374;2023-02-17T04:12:44;101093.09;;;7.75;100.00
67015;BME280;1033;52.560;13.374;2023-02-17T04:15:13;101089.56;;;7.75;100.00
67015;BME280;1033;52.560;13.374;2023-02-17T04:17:42;101097.09;;;7.79;100.00
67015;BME280;1033;52.560;13.374;2023-02-17T04:20:12;101093.06;;;7.83;100.00
67015;BME280;1033;52.560;13.374;2023-02-17T04:22:41;101095.91;;;7.82;100.00
67015;BME280;1033;52.560;13.374;2023-02-17T04:25:14;101087.84;;;7.82;100.00
67015;BME280;1033;52.560;13.374;2023-02-17T04:27:43;101090.91;;;7.79;100.00
67015;BME280;1033;52.560;13.374;2023-02-17T04:30:13;101076.06;;;7.83;100.00
67015;BME280;1033;52.560;13.374;2023-02-17T04:32:42;101077.22;;;7.80;100.00
67015;BME280;1033;52.560;13.374;2023-02-17T04:35:11;101071.22;;;7.78;100.00
67015;BME280;1033;52.560;13.374;2023-02-17T04:37:40;101073.41;;;7.75;100.00
67015;BME280;1033;52.560;13.374;2023-02-17T04:40:10;101056.06;;;7.77;100.00
67015;BME280;1033;52.560;13.374;2023-02-17T04:42:40;101080.22;;;7.85;100.00
67015;BME280;1033;52.560;13.374;2023-02-17T04:45:10;101083.84;;;7.78;100.00
67015;BME280;1033;52.560;13.374;2023-02-17T04:47:39;101086.94;;;7.90;100.00
67015;BME280;1033;52.560;13.374;2023-02-17T04:50:09;101078.75;;;7.83;100.00
67015;BME280;1033;52.560;13.374;2023-02-17T04:52:38;101072.91;;;7.71;100.00
67015;BME280;1033;52.560;13.374;2023-02-17T04:55:08;101057.91;;;7.77;100.00
67015;BME280;1033;52.560;13.374;2023-02-17T04:57:37;101055.69;;;7.80;100.00
67015;BME280;1033;52.560;13.374;2023-02-17T05:00:09;101052.94;;;7.89;100.00
67015;BME280;1033;52.560;13.374;2023-02-17T05:02:38;101050.25;;;7.89;100.00
67015;BME280;1033;52.560;13.374;2023-02-17T05:05:09;101056.44;;;7.89;100.00
67015;BME280;1033;52.560;13.374;2023-02-17T05:07:41;101059.63;;;7.93;100.00
67015;BME280;1033;52.560;13.374;2023-02-17T05:10:11;101051.56;;;7.93;100.00
67015;BME280;1033;52.560;13.374;2023-02-17T05:12:41;101047.34;;;7.90;100.00
67015;BME280;1033;52.560;13.374;2023-02-17T05:15:12;101046.81;;;7.95;100.00
67015;BME280;1033;52.560;13.374;2023-02-17T05:17:41;101044.31;;;7.93;100.00
67015;BME280;1033;52.560;13.374;2023-02-17T05:20:10;101042.63;;;7.92;100.00
67015;BME280;1033;52.560;13.374;2023-02-17T05:22:39;101038.53;;;7.96;100.00
67015;BME280;1033;52.560;13.374;2023-02-17T05:25:09;101035.38;;;7.93;100.00
67015;BME280;1033;52.560;13.374;2023-02-17T05:27:37;101033.88;;;7.90;100.00
67015;BME280;1033;52.560;13.374;2023-02-17T05:30:07;101042.94;;;7.97;100.00
67015;BME280;1033;52.560;13.374;2023-02-17T05:32:38;101036.16;;;8.01;100.00
67015;BME280;1033;52.560;13.374;2023-02-17T05:35:07;101027.78;;;7.96;100.00
67015;BME280;1033;52.560;13.374;2023-02-17T05:37:36;101027.38;;;7.99;100.00
67015;BME280;1033;52.560;13.374;2023-02-17T05:40:11;101024.91;;;7.98;100.00
67015;BME280;1033;52.560;13.374;2023-02-17T05:42:41;101026.13;;;8.10;100.00
67015;BME280;1033;52.560;13.374;2023-02-17T05:45:10;101027.97;;;8.09;100.00
67015;BME280;1033;52.560;13.374;2023-02-17T05:47:40;101024.66;;;8.07;100.00
67015;BME280;1033;52.560;13.374;2023-02-17T05:50:10;101025.00;;;8.04;100.00
67015;BME280;1033;52.560;13.374;2023-02-17T05:52:39;101027.50;;;8.06;100.00
67015;BME280;1033;52.560;13.374;2023-02-17T05:55:08;101022.28;;;8.04;100.00
67015;BME280;1033;52.560;13.374;2023-02-17T05:57:37;101021.41;;;8.12;100.00
67015;BME280;1033;52.560;13.374;2023-02-17T06:00:07;101020.69;;;7.95;100.00
67015;BME280;1033;52.560;13.374;2023-02-17T06:02:41;101017.16;;;7.95;100.00
67015;BME280;1033;52.560;13.374;2023-02-17T06:05:10;101016.63;;;7.99;100.00
67015;BME280;1033;52.560;13.374;2023-02-17T06:07:39;101000.94;;;8.03;100.00
67015;BME280;1033;52.560;13.374;2023-02-17T06:10:10;101007.16;;;8.03;100.00
67015;BME280;1033;52.560;13.374;2023-02-17T06:12:39;101002.06;;;8.08;100.00
67015;BME280;1033;52.560;13.374;2023-02-17T06:15:08;100994.25;;;8.13;100.00
67015;BME280;1033;52.560;13.374;2023-02-17T06:17:38;100994.53;;;8.18;100.00
67015;BME280;1033;52.560;13.374;2023-02-17T06:20:09;100982.56;;;8.21;100.00
67015;BME280;1033;52.560;13.374;2023-02-17T06:22:39;100988.31;;;8.18;100.00
67015;BME280;1033;52.560;13.374;2023-02-17T06:25:09;100986.25;;;8.20;100.00
67015;BME280;1033;52.560;13.374;2023-02-17T06:27:38;100982.56;;;8.21;100.00
67015;BME280;1033;52.560;13.374;2023-02-17T06:30:09;100980.69;;;8.21;100.00
67015;BME280;1033;52.560;13.374;2023-02-17T06:32:38;100984.41;;;8.20;100.00
67015;BME280;1033;52.560;13.374;2023-02-17T06:39:39;100986.16;;;8.13;100.00
67015;BME280;1033;52.560;13.374;2023-02-17T06:42:09;100976.88;;;8.16;100.00
67015;BME280;1033;52.560;13.374;2023-02-17T06:44:38;100986.09;;;8.21;100.00
67015;BME280;1033;52.560;13.374;2023-02-17T06:47:07;100981.09;;;8.33;100.00
67015;BME280;1033;52.560;13.374;2023-02-17T06:49:36;100976.25;;;8.43;100.00
67015;BME280;1033;52.560;13.374;2023-02-17T06:52:07;100975.69;;;8.33;100.00
67015;BME280;1033;52.560;13.374;2023-02-17T06:54:36;100979.53;;;8.39;100.00
67015;BME280;1033;52.560;13.374;2023-02-17T06:57:07;100966.25;;;8.52;100.00
67015;BME280;1033;52.560;13.374;2023-02-17T06:59:36;100972.63;;;8.65;100.00
67015;BME280;1033;52.560;13.374;2023-02-17T07:02:05;100967.03;;;8.52;100.00
67015;BME280;1033;52.560;13.374;2023-02-17T07:04:34;100965.00;;;8.69;100.00
67015;BME280;1033;52.560;13.374;2023-02-17T07:07:04;100959.72;;;8.61;100.00
67015;BME280;1033;52.560;13.374;2023-02-17T07:09:33;100955.63;;;8.65;100.00
67015;BME280;1033;52.560;13.374;2023-02-17T07:12:02;100951.34;;;8.70;100.00
67015;BME280;1033;52.560;13.374;2023-02-17T07:14:34;100955.59;;;8.80;100.00
67015;BME280;1033;52.560;13.374;2023-02-17T07:17:03;100958.75;;;8.83;100.00
67015;BME280;1033;52.560;13.374;2023-02-17T07:19:32;100959.41;;;8.85;100.00
67015;BME280;1033;52.560;13.374;2023-02-17T07:22:01;100954.31;;;8.76;100.00
67015;BME280;1033;52.560;13.374;2023-02-17T07:24:31;100959.00;;;8.88;100.00
67015;BME280;1033;52.560;13.374;2023-02-17T07:27:00;100953.53;;;8.82;100.00
67015;BME280;1033;52.560;13.374;2023-02-17T07:29:29;100958.25;;;8.94;100.00
67015;BME280;1033;52.560;13.374;2023-02-17T07:32:00;100947.66;;;8.93;100.00
67015;BME280;1033;52.560;13.374;2023-02-17T07:34:29;100947.16;;;9.04;100.00
67015;BME280;1033;52.560;13.374;2023-02-17T07:36:58;100953.00;;;9.07;100.00
67015;BME280;1033;52.560;13.374;2023-02-17T07:39:27;100944.41;;;9.19;100.00
67015;BME280;1033;52.560;13.374;2023-02-17T07:41:56;100942.47;;;9.12;100.00
67015;BME280;1033;52.560;13.374;2023-02-17T07:44:27;100933.34;;;9.13;100.00
67015;BME280;1033;52.560;13.374;2023-02-17T07:46:56;100933.59;;;9.19;100.00
67015;BME280;1033;52.560;13.374;2023-02-17T07:49:27;100926.72;;;9.37;100.00
67015;BME280;1033;52.560;13.374;2023-02-17T07:51:56;100928.19;;;9.40;100.00
67015;BME280;1033;52.560;13.374;2023-02-17T07:54:25;100928.50;;;9.30;100.00
67015;BME280;1033;52.560;13.374;2023-02-17T07:56:54;100925.31;;;9.41;100.00
67015;BME280;1033;52.560;13.374;2023-02-17T07:59:23;100923.44;;;9.42;100.00
67015;BME280;1033;52.560;13.374;2023-02-17T08:01:52;100926.25;;;9.55;100.00
67015;BME280;1033;52.560;13.374;2023-02-17T08:04:21;100922.66;;;9.48;100.00
67015;BME280;1033;52.560;13.374;2023-02-17T08:06:51;100925.22;;;9.56;99.84
67015;BME280;1033;52.560;13.374;2023-02-17T08:09:20;100925.63;;;9.53;100.00
67015;BME280;1033;52.560;13.374;2023-02-17T08:12:10;100932.31;;;9.57;100.00
67015;BME280;1033;52.560;13.374;2023-02-17T08:15:00;100929.50;;;9.44;100.00
67015;BME280;1033;52.560;13.374;2023-02-17T08:17:29;100925.63;;;9.53;100.00
67015;BME280;1033;52.560;13.374;2023-02-17T08:19:58;100922.66;;;9.48;100.00
67015;BME280;1033;52.560;13.374;2023-02-17T08:22:36;100927.78;;;9.64;100.00
67015;BME280;1033;52.560;13.374;2023-02-17T08:25:05;100923.56;;;9.55;100.00
67015;BME280;1033;52.560;13.374;2023-02-17T08:27:34;100916.09;;;9.57;100.00
67015;BME280;1033;52.560;13.374;2023-02-17T08:30:04;100907.66;;;9.67;100.00
67015;BME280;1033;52.560;13.374;2023-02-17T08:32:34;100913.00;;;9.60;100.00
67015;BME280;1033;52.560;13.374;2023-02-17T08:35:34;100905.47;;;9.55;100.00
67015;BME280;1033;52.560;13.374;2023-02-17T08:38:05;100904.38;;;9.50;100.00
67015;BME280;1033;52.560;13.374;2023-02-17T08:40:34;100904.38;;;9.50;100.00
67015;BME280;1033;52.560;13.374;2023-02-17T08:43:03;100897.97;;;9.30;100.00
67015;BME280;1033;52.560;13.374;2023-02-17T08:45:34;100902.50;;;9.44;100.00
67015;BME280;1033;52.560;13.374;2023-02-17T08:48:05;100901.75;;;9.56;100.00
67015;BME280;1033;52.560;13.374;2023-02-17T08:50:34;100895.25;;;9.51;100.00
67015;BME280;1033;52.560;13.374;2023-02-17T08:53:04;100893.81;;;9.48;100.00
67015;BME280;1033;52.560;13.374;2023-02-17T08:55:34;100887.06;;;9.66;100.00
67015;BME280;1033;52.560;13.374;2023-02-17T08:58:15;100877.75;;;9.68;100.00
67015;BME280;1033;52.560;13.374;2023-02-17T09:00:45;100879.72;;;9.53;100.00
67015;BME280;1033;52.560;13.374;2023-02-17T09:03:14;100872.91;;;9.64;100.00
67015;BME280;1033;52.560;13.374;2023-02-17T09:05:43;100861.41;;;9.55;100.00
67015;BME280;1033;52.560;13.374;2023-02-17T09:08:13;100853.88;;;9.78;100.00
67015;BME280;1033;52.560;13.374;2023-02-17T09:10:43;100851.34;;;9.70;100.00
67015;BME280;1033;52.560;13.374;2023-02-17T09:13:12;100842.41;;;9.70;100.00
67015;BME280;1033;52.560;13.374;2023-02-17T09:15:41;100834.88;;;9.65;100.00
67015;BME280;1033;52.560;13.374;2023-02-17T09:18:10;100839.91;;;9.68;100.00
67015;BME280;1033;52.560;13.374;2023-02-17T09:20:39;100828.28;;;9.68;100.00
67015;BME280;1033;52.560;13.374;2023-02-17T09:23:08;100825.44;;;9.82;100.00
67015;BME280;1033;52.560;13.374;2023-02-17T09:25:39;100821.69;;;9.83;100.00
67015;BME280;1033;52.560;13.374;2023-02-17T09:28:08;100812.56;;;9.84;100.00
67015;BME280;1033;52.560;13.374;2023-02-17T09:30:37;100807.34;;;9.83;100.00
67015;BME280;1033;52.560;13.374;2023-02-17T09:33:06;100808.59;;;9.80;100.00
67015;BME280;1033;52.560;13.374;2023-02-17T09:35:36;100801.13;;;9.82;100.00
67015;BME280;1033;52.560;13.374;2023-02-17T09:38:06;100798.84;;;9.86;100.00
67015;BME280;1033;52.560;13.374;2023-02-17T09:40:43;100789.53;;;9.95;100.00
67015;BME280;1033;52.560;13.374;2023-02-17T09:43:15;100796.63;;;10.02;100.00
67015;BME280;1033;52.560;13.374;2023-02-17T09:45:48;100788.28;;;9.97;100.00
67015;BME280;1033;52.560;13.374;2023-02-17T09:48:21;100778.78;;;10.01;100.00
67015;BME280;1033;52.560;13.374;2023-02-17T09:50:55;100781.31;;;9.75;100.00
67015;BME280;1033;52.560;13.374;2023-02-17T09:53:29;100784.06;;;9.82;100.00
67015;BME280;1033;52.560;13.374;2023-02-17T09:56:06;100783.25;;;9.81;100.00
67015;BME280;1033;52.560;13.374;2023-02-17T09:58:40;100777.84;;;9.81;100.00
67015;BME280;1033;52.560;13.374;2023-02-17T10:01:15;100781.38;;;9.88;100.00
67015;BME280;1033;52.560;13.374;2023-02-17T10:03:49;100772.84;;;9.85;100.00
67015;BME280;1033;52.560;13.374;2023-02-17T10:06:24;100765.91;;;9.69;100.00
67015;BME280;1033;52.560;13.374;2023-02-17T10:08:58;100758.69;;;9.83;100.00
67015;BME280;1033;52.560;13.374;2023-02-17T10:11:33;100766.38;;;9.79;100.00
67015;BME280;1033;52.560;13.374;2023-02-17T10:14:06;100762.66;;;9.80;100.00
67015;BME280;1033;52.560;13.374;2023-02-17T10:16:41;100752.00;;;9.72;100.00
67015;BME280;1033;52.560;13.374;2023-02-17T10:19:15;100757.06;;;9.88;100.00
67015;BME280;1033;52.560;13.374;2023-02-17T10:22:01;100744.81;;;9.92;100.00
67015;BME280;1033;52.560;13.374;2023-02-17T10:24:36;100742.94;;;9.86;100.00
67015;BME280;1033;52.560;13.374;2023-02-17T10:27:35;100734.38;;;9.83;100.00
67015;BME280;1033;52.560;13.374;2023-02-17T10:30:23;100716.09;;;9.85;100.00
67015;BME280;1033;52.560;13.374;2023-02-17T10:32:59;100712.56;;;9.84;100.00
67015;BME280;1033;52.560;13.374;2023-02-17T10:35:48;100711.50;;;9.79;100.00
67015;BME280;1033;52.560;13.374;2023-02-17T10:38:27;100706.53;;;9.89;100.00
67015;BME280;1033;52.560;13.374;2023-02-17T10:41:00;100705.50;;;9.90;100.00
67015;BME280;1033;52.560;13.374;2023-02-17T10:43:32;100702.47;;;10.13;100.00
67015;BME280;1033;52.560;13.374;2023-02-17T10:46:05;100701.44;;;10.14;100.00
67015;BME280;1033;52.560;13.374;2023-02-17T10:48:38;100691.84;;;10.04;100.00
67015;BME280;1033;52.560;13.374;2023-02-17T10:51:13;100690.69;;;10.20;100.00
67015;BME280;1033;52.560;13.374;2023-02-17T10:53:46;100684.81;;;10.17;100.00
67015;BME280;1033;52.560;13.374;2023-02-17T10:56:18;100680.69;;;10.21;100.00
67015;BME280;1033;52.560;13.374;2023-02-17T10:58:54;100680.72;;;10.34;100.00
67015;BME280;1033;52.560;13.374;2023-02-17T11:01:27;100665.09;;;10.29;100.00
67015;BME280;1033;52.560;13.374;2023-02-17T11:04:00;100668.81;;;10.22;100.00
67015;BME280;1033;52.560;13.374;2023-02-17T11:06:31;100659.06;;;10.21;100.00
67015;BME280;1033;52.560;13.374;2023-02-17T11:09:02;100644.91;;;10.19;100.00
67015;BME280;1033;52.560;13.374;2023-02-17T11:11:35;100639.53;;;10.45;100.00
67015;BME280;1033;52.560;13.374;2023-02-17T11:14:12;100628.91;;;10.50;100.00
67015;BME280;1033;52.560;13.374;2023-02-17T11:16:50;100618.50;;;10.47;100.00
67015;BME280;1033;52.560;13.374;2023-02-17T11:19:23;100611.44;;;10.59;100.00
67015;BME280;1033;52.560;13.374;2023-02-17T11:21:54;100601.00;;;10.56;100.00
67015;BME280;1033;52.560;13.374;2023-02-17T11:24:24;100593.53;;;10.58;100.00
67015;BME280;1033;52.560;13.374;2023-02-17T11:26:58;100601.66;;;10.58;100.00
67015;BME280;1033;52.560;13.374;2023-02-17T11:29:29;100600.81;;;10.58;100.00
67015;BME280;1033;52.560;13.374;2023-02-17T11:32:01;100594.78;;;10.62;100.00
67015;BME280;1033;52.560;13.374;2023-02-17T11:34:32;100593.94;;;10.68;100.00
67015;BME280;1033;52.560;13.374;2023-02-17T11:37:18;100592.66;;;10.77;100.00
67015;BME280;1033;52.560;13.374;2023-02-17T11:39:50;100573.28;;;10.80;100.00
67015;BME280;1033;52.560;13.374;2023-02-17T11:42:21;100564.97;;;10.75;100.00
67015;BME280;1033;52.560;13.374;2023-02-17T11:44:55;100558.31;;;10.78;100.00
67015;BME280;1033;52.560;13.374;2023-02-17T11:47:32;100550.78;;;10.86;100.00
67015;BME280;1033;52.560;13.374;2023-02-17T11:50:16;100537.50;;;10.78;100.00
67015;BME280;1033;52.560;13.374;2023-02-17T11:53:19;100528.34;;;10.79;100.00
67015;BME280;1033;52.560;13.374;2023-02-17T11:55:59;100515.41;;;10.88;100.00
67015;BME280;1033;52.560;13.374;2023-02-17T11:58:42;100493.56;;;10.83;100.00
67015;BME280;1033;52.560;13.374;2023-02-17T12:01:28;100484.53;;;10.96;100.00
67015;BME280;1033;52.560;13.374;2023-02-17T12:04:24;100494.91;;;11.12;99.87
67015;BME280;1033;52.560;13.374;2023-02-17T12:07:15;100497.78;;;11.17;98.08
67015;BME280;1033;52.560;13.374;2023-02-17T12:09:52;100501.09;;;11.19;97.74
67015;BME280;1033;52.560;13.374;2023-02-17T12:12:31;100499.66;;;11.23;97.87
67015;BME280;1033;52.560;13.374;2023-02-17T12:15:23;100487.25;;;11.40;97.69
67015;BME280;1033;52.560;13.374;2023-02-17T12:18:03;100477.91;;;11.29;97.14
67015;BME280;1033;52.560;13.374;2023-02-17T12:20:43;100465.13;;;11.43;96.26
67015;BME280;1033;52.560;13.374;2023-02-17T12:23:32;100462.34;;;11.56;95.39
67015;BME280;1033;52.560;13.374;2023-02-17T12:26:08;100453.88;;;11.46;95.05
67015;BME280;1033;52.560;13.374;2023-02-17T12:28:52;100464.97;;;11.69;94.30
67015;BME280;1033;52.560;13.374;2023-02-17T12:31:42;100450.13;;;11.72;94.02
67015;BME280;1033;52.560;13.374;2023-02-17T12:34:27;100439.44;;;11.84;93.91
67015;BME280;1033;52.560;13.374;2023-02-17T12:36:58;100442.16;;;11.84;92.87
67015;BME280;1033;52.560;13.374;2023-02-17T12:39:31;100453.16;;;11.89;93.09
67015;BME280;1033;52.560;13.374;2023-02-17T12:42:06;100441.09;;;11.85;93.45
67015;BME280;1033;52.560;13.374;2023-02-17T12:44:41;100430.09;;;12.04;91.68
67015;BME280;1033;52.560;13.374;2023-02-17T12:47:15;100422.16;;;12.03;91.82
67015;BME280;1033;52.560;13.374;2023-02-17T12:49:50;100423.38;;;12.07;90.96
67015;BME280;1033;52.560;13.374;2023-02-17T12:52:24;100427.75;;;12.08;90.64
67015;BME280;1033;52.560;13.374;2023-02-17T12:54:57;100427.53;;;12.09;90.89
67015;BME280;1033;52.560;13.374;2023-02-17T12:57:34;100433.19;;;12.26;90.17
67015;BME280;1033;52.560;13.374;2023-02-17T13:00:15;100432.81;;;12.23;90.33
67015;BME280;1033;52.560;13.374;2023-02-17T13:02:47;100430.00;;;12.11;90.51
67015;BME280;1033;52.560;13.374;2023-02-17T13:05:21;100435.66;;;12.09;91.04
67015;BME280;1033;52.560;13.374;2023-02-17T13:07:57;100425.50;;;12.05;91.78
67015;BME280;1033;52.560;13.374;2023-02-17T13:10:32;100422.47;;;12.13;91.23
67015;BME280;1033;52.560;13.374;2023-02-17T13:13:03;100414.88;;;12.22;91.08
67015;BME280;1033;52.560;13.374;2023-02-17T13:15:38;100403.97;;;12.28;90.64
67015;BME280;1033;52.560;13.374;2023-02-17T13:18:12;100399.38;;;12.29;90.33
67015;BME280;1033;52.560;13.374;2023-02-17T13:20:59;100406.69;;;12.46;90.00
67015;BME280;1033;52.560;13.374;2023-02-17T13:23:37;100406.53;;;12.41;90.09
67015;BME280;1033;52.560;13.374;2023-02-17T13:29:19;100401.09;;;12.41;89.68
67015;BME280;1033;52.560;13.374;2023-02-17T13:31:52;100385.88;;;12.40;90.14
67015;BME280;1033;52.560;13.374;2023-02-17T13:34:30;100393.72;;;12.48;89.34
67015;BME280;1033;52.560;13.374;2023-02-17T13:37:16;100390.09;;;12.54;89.47